Time;durP1;ratioP1;P1;durP2;ratioP2;P2;SDS_P1;SDS_P2;PMS_P1;PMS_P2;Temp;Humidity;BMP_temperature;BMP_pressure;BME280_temperature;BME280_humidity;BME280_pressure;Samples;Min_cycle;Max_cycle;Signal;HPM_P1;HPM_P2
2023/12/02 00:00:50;;;;;;;6.90;4.80;;;;;;;4.85;100.00;99523.65;109326;1253;66947;-61
2023/12/02 00:03:18;;;;;;;8.00;5.20;;;;;;;4.86;100.00;99537.45;109407;1253;71466;-63
2023/12/02 00:05:50;;;;;;;6.70;4.40;;;;;;;4.87;100.00;99542.22;109332;1254;60306;-60
2023/12/02 00:08:18;;;;;;;6.30;4.30;;;;;;;4.85;100.00;99543.29;109384;1253;60042;-61
2023/12/02 00:10:46;;;;;;;7.50;4.90;;;;;;;4.82;100.00;99533.41;109312;1253;73494;-61
2023/12/02 00:13:13;;;;;;;6.50;4.50;;;;;;;4.79;100.00;99530.80;109280;1254;67112;-61
2023/12/02 00:15:41;;;;;;;6.20;4.00;;;;;;;4.78;100.00;99534.40;109416;1253;72680;-61
2023/12/02 00:18:08;;;;;;;7.00;5.00;;;;;;;4.77;100.00;99527.09;109365;1253;59266;-61
2023/12/02 00:20:36;;;;;;;7.50;5.10;;;;;;;4.80;100.00;99531.21;109357;1253;59441;-61
2023/12/02 00:23:04;;;;;;;6.70;4.70;;;;;;;4.82;100.00;99536.77;109406;1253;74698;-61
2023/12/02 00:25:31;;;;;;;8.00;5.40;;;;;;;4.81;100.00;99530.26;109448;1253;65662;-61
2023/12/02 00:27:59;;;;;;;6.80;4.70;;;;;;;4.83;100.00;99531.23;109388;1253;72738;-61
2023/12/02 00:30:27;;;;;;;7.30;5.10;;;;;;;4.85;100.00;99550.87;109346;1253;61814;-63
2023/12/02 00:32:54;;;;;;;7.80;5.00;;;;;;;4.89;100.00;99566.31;109455;1253;60454;-61
2023/12/02 00:35:22;;;;;;;6.30;4.70;;;;;;;4.88;100.00;99561.03;109402;1253;74724;-62
2023/12/02 00:37:50;;;;;;;7.70;5.00;;;;;;;4.88;100.00;99564.32;109325;1251;65675;-61
2023/12/02 00:40:17;;;;;;;6.30;4.50;;;;;;;4.86;100.00;99553.33;109370;1253;72759;-61
2023/12/02 00:42:45;;;;;;;5.50;4.00;;;;;;;4.86;100.00;99552.17;109290;1253;61733;-61
2023/12/02 00:45:12;;;;;;;7.00;4.90;;;;;;;4.85;100.00;99565.48;109338;1253;60114;-61
2023/12/02 00:47:40;;;;;;;7.50;5.10;;;;;;;4.87;100.00;99576.12;109343;1253;73399;-61
2023/12/02 00:50:08;;;;;;;6.70;4.50;;;;;;;4.88;100.00;99574.98;109392;1253;66859;-61
2023/12/02 00:52:35;;;;;;;7.00;4.90;;;;;;;4.86;100.00;99577.80;109256;1253;72383;-61
2023/12/02 00:55:03;;;;;;;6.40;4.50;;;;;;;4.85;100.00;99585.31;109335;1253;61808;-60
2023/12/02 00:57:31;;;;;;;7.40;4.50;;;;;;;4.85;100.00;99591.70;109363;1253;60125;-61
2023/12/02 00:59:59;;;;;;;6.80;4.70;;;;;;;4.83;100.00;99591.90;109452;1253;73546;-60
2023/12/02 01:02:26;;;;;;;8.40;4.90;;;;;;;4.79;100.00;99589.35;109342;1253;66229;-60
2023/12/02 01:04:54;;;;;;;7.20;4.90;;;;;;;4.77;100.00;99596.20;109324;1253;71261;-61
2023/12/02 01:07:22;;;;;;;6.40;4.60;;;;;;;4.75;100.00;99597.04;109305;1256;61739;-61
2023/12/02 01:09:49;;;;;;;7.60;4.80;;;;;;;4.76;100.00;99603.33;109323;1253;58993;-61
2023/12/02 01:12:17;;;;;;;7.30;4.90;;;;;;;4.78;100.00;99597.55;109377;1253;74724;-61
2023/12/02 01:14:44;;;;;;;6.70;4.60;;;;;;;4.79;100.00;99590.06;109306;1253;66957;-62
2023/12/02 01:17:12;;;;;;;8.10;4.40;;;;;;;4.80;100.00;99583.40;109342;1253;71389;-61
2023/12/02 01:19:40;;;;;;;6.80;4.50;;;;;;;4.82;100.00;99587.38;109354;1253;60998;-61
2023/12/02 01:22:08;;;;;;;6.60;4.70;;;;;;;4.84;100.00;99576.83;109365;1252;60108;-61
2023/12/02 01:24:35;;;;;;;7.30;5.00;;;;;;;4.83;100.00;99579.59;109338;1253;75529;-63
2023/12/02 01:27:03;;;;;;;7.80;5.40;;;;;;;4.83;100.00;99581.38;109363;1253;66986;-61
2023/12/02 01:29:31;;;;;;;6.40;4.50;;;;;;;4.78;100.00;99573.77;109345;1253;72775;-61
2023/12/02 01:31:58;;;;;;;6.40;4.30;;;;;;;4.64;100.00;99558.63;109329;1253;60947;-61
2023/12/02 01:34:26;;;;;;;6.60;4.50;;;;;;;4.50;100.00;99566.46;109448;1253;60125;-61
2023/12/02 01:36:54;;;;;;;6.00;3.80;;;;;;;4.43;100.00;99593.20;109338;1253;74014;-61
2023/12/02 01:39:21;;;;;;;5.50;3.40;;;;;;;4.34;100.00;99594.73;109319;1253;65290;-60
2023/12/02 01:41:49;;;;;;;6.20;4.30;;;;;;;4.25;100.00;99566.31;109393;1253;71414;-61
2023/12/02 01:44:17;;;;;;;6.60;3.60;;;;;;;4.12;100.00;99559.33;109363;1253;60971;-60
2023/12/02 01:46:44;;;;;;;5.90;3.80;;;;;;;4.03;100.00;99593.45;109321;1252;60224;-61
2023/12/02 01:49:12;;;;;;;7.10;4.20;;;;;;;4.01;100.00;99596.63;109364;1257;74638;-60
2023/12/02 01:51:40;;;;;;;5.90;4.60;;;;;;;3.99;100.00;99585.66;109116;1253;67044;-60
2023/12/02 01:54:08;;;;;;;6.50;4.50;;;;;;;3.96;100.00;99609.50;109144;1253;72644;-61
2023/12/02 01:56:35;;;;;;;7.40;4.90;;;;;;;3.94;100.00;99612.17;109339;1253;60915;-61
2023/12/02 01:59:07;;;;;;;7.50;4.70;;;;;;;3.88;100.00;99602.10;109109;1253;59448;-61
2023/12/02 02:01:35;;;;;;;6.30;4.50;;;;;;;3.86;100.00;99598.48;109319;1253;74708;-61
2023/12/02 02:04:03;;;;;;;8.00;5.40;;;;;;;3.84;100.00;99622.55;109381;1253;66850;-61
2023/12/02 02:06:31;;;;;;;8.30;5.60;;;;;;;3.83;100.00;99631.47;109296;1253;71469;-64
2023/12/02 02:08:58;;;;;;;8.80;5.60;;;;;;;3.81;100.00;99615.38;109323;1253;60235;-61
2023/12/02 02:11:26;;;;;;;6.90;5.10;;;;;;;3.75;100.00;99600.79;109331;1253;59093;-61
2023/12/02 02:13:54;;;;;;;7.30;4.80;;;;;;;3.69;100.00;99600.75;109353;1253;74735;-60
2023/12/02 02:16:21;;;;;;;9.20;5.60;;;;;;;3.63;100.00;99608.02;109309;1253;66981;-61
2023/12/02 02:18:49;;;;;;;7.80;5.30;;;;;;;3.57;100.00;99608.48;109406;1253;70638;-62
2023/12/02 02:21:20;;;;;;;8.30;6.20;;;;;;;3.52;100.00;99614.70;109315;1253;61739;-61
2023/12/02 02:23:48;;;;;;;10.30;5.50;;;;;;;3.50;100.00;99619.10;109347;1253;60097;-61
2023/12/02 02:26:15;;;;;;;9.90;6.10;;;;;;;3.50;100.00;99610.34;109353;1253;72232;-61
2023/12/02 02:28:43;;;;;;;8.50;6.30;;;;;;;3.49;100.00;99603.44;109317;1253;66091;-63
2023/12/02 02:31:10;;;;;;;10.40;6.00;;;;;;;3.45;100.00;99627.19;109302;1254;72727;-62
2023/12/02 02:33:38;;;;;;;8.90;6.40;;;;;;;3.46;100.00;99630.70;109316;1253;59604;-61
2023/12/02 02:36:06;;;;;;;11.50;6.10;;;;;;;3.46;100.00;99638.46;109308;1254;60122;-62
2023/12/02 02:38:34;;;;;;;8.10;5.90;;;;;;;3.45;100.00;99638.35;109349;1257;74764;-62
2023/12/02 02:41:01;;;;;;;7.50;5.40;;;;;;;3.53;100.00;99632.23;109321;1254;67110;-62
2023/12/02 02:43:29;;;;;;;8.60;6.40;;;;;;;3.58;100.00;99630.90;109374;1253;72640;-61
2023/12/02 02:45:56;;;;;;;9.00;6.10;;;;;;;3.57;100.00;99626.10;109329;1253;58994;-61
2023/12/02 02:48:24;;;;;;;7.40;5.10;;;;;;;3.56;100.00;99618.38;109379;1253;60178;-62
2023/12/02 02:50:52;;;;;;;9.10;5.90;;;;;;;3.53;100.00;99614.52;109279;1257;73371;-64
2023/12/02 02:53:20;;;;;;;8.00;5.80;;;;;;;3.53;100.00;99612.81;109346;1253;65495;-61
2023/12/02 02:55:47;;;;;;;6.80;5.20;;;;;;;3.51;100.00;99609.05;109323;1253;72523;-61
2023/12/02 02:58:15;;;;;;;8.00;5.60;;;;;;;3.48;100.00;99611.59;109309;1254;58964;-61
2023/12/02 03:00:43;;;;;;;8.20;6.00;;;;;;;3.44;100.00;99611.36;109278;1258;59011;-63
2023/12/02 03:03:10;;;;;;;7.90;5.50;;;;;;;3.38;100.00;99610.69;109356;1253;73448;-61
2023/12/02 03:05:38;;;;;;;7.90;5.50;;;;;;;3.35;100.00;99615.14;109322;1253;65634;-61
2023/12/02 03:08:05;;;;;;;10.50;7.30;;;;;;;3.31;100.00;99620.45;109273;1253;71769;-61
2023/12/02 03:10:34;;;;;;;9.40;7.10;;;;;;;3.30;100.00;99614.42;109267;1253;58951;-61
2023/12/02 03:13:02;;;;;;;9.70;6.80;;;;;;;3.28;100.00;99620.77;109266;1253;60044;-61
2023/12/02 03:15:29;;;;;;;10.20;7.20;;;;;;;3.26;100.00;99626.49;109287;1252;73679;-61
2023/12/02 03:17:57;;;;;;;10.40;7.00;;;;;;;3.22;100.00;99648.03;109299;1253;64961;-61
2023/12/02 03:20:25;;;;;;;10.50;7.10;;;;;;;3.19;100.00;99656.19;109282;1254;70465;-61
2023/12/02 03:22:52;;;;;;;9.60;6.50;;;;;;;3.15;100.00;99654.14;109229;1253;58978;-62
2023/12/02 03:25:20;;;;;;;9.90;6.90;;;;;;;3.14;100.00;99647.19;109318;1253;59686;-61
2023/12/02 03:27:47;;;;;;;10.10;7.10;;;;;;;3.11;100.00;99647.33;109307;1253;73523;-61
2023/12/02 03:30:15;;;;;;;8.80;6.00;;;;;;;3.09;100.00;99652.64;109349;1253;65651;-61
2023/12/02 03:32:43;;;;;;;8.90;6.60;;;;;;;3.09;100.00;99657.34;109302;1253;72430;-62
2023/12/02 03:35:10;;;;;;;10.10;7.10;;;;;;;3.09;100.00;99659.69;109277;1253;60787;-62
2023/12/02 03:37:38;;;;;;;9.10;6.30;;;;;;;3.09;100.00;99665.91;109301;1255;59134;-61
2023/12/02 03:40:06;;;;;;;8.90;6.00;;;;;;;3.09;100.00;99671.41;109324;1253;74743;-61
2023/12/02 03:42:34;;;;;;;8.70;6.60;;;;;;;3.07;100.00;99671.65;109285;1253;67003;-61
2023/12/02 03:45:02;;;;;;;8.00;6.00;;;;;;;3.02;100.00;99665.55;109274;1253;72797;-61
2023/12/02 03:47:30;;;;;;;9.40;5.90;;;;;;;3.05;100.00;99669.92;109319;1253;61053;-61
2023/12/02 03:49:58;;;;;;;9.40;5.50;;;;;;;3.07;100.00;99686.38;109447;1253;60142;-61
2023/12/02 03:52:25;;;;;;;8.40;5.70;;;;;;;3.07;100.00;99678.42;109304;1253;73434;-61
2023/12/02 03:54:53;;;;;;;8.00;4.90;;;;;;;3.07;100.00;99667.27;109301;1253;67186;-64
2023/12/02 03:57:20;;;;;;;8.10;5.80;;;;;;;3.05;100.00;99669.61;109288;1253;73290;-61
2023/12/02 03:59:48;;;;;;;7.00;4.90;;;;;;;3.03;100.00;99679.05;109298;1253;61174;-62
2023/12/02 04:02:16;;;;;;;8.00;5.10;;;;;;;3.03;100.00;99677.27;109333;1254;60127;-62
2023/12/02 04:04:43;;;;;;;7.70;4.70;;;;;;;3.06;100.00;99673.11;109289;1253;72457;-64
2023/12/02 04:07:11;;;;;;;7.50;5.50;;;;;;;3.06;100.00;99673.25;109325;1253;65642;-62
2023/12/02 04:09:39;;;;;;;8.70;6.00;;;;;;;3.05;100.00;99677.94;109299;1253;72777;-61
2023/12/02 04:12:07;;;;;;;52.10;42.30;;;;;;;3.04;100.00;99684.46;109266;1253;59070;-62
2023/12/02 04:14:34;;;;;;;28.30;17.80;;;;;;;3.07;100.00;99689.48;109327;1253;60115;-61
2023/12/02 04:17:02;;;;;;;13.30;8.70;;;;;;;3.09;100.00;99683.06;109272;1253;74734;-62
2023/12/02 04:19:29;;;;;;;10.00;6.70;;;;;;;3.07;100.00;99688.23;109309;1254;66165;-62
2023/12/02 04:21:57;;;;;;;9.40;6.20;;;;;;;3.03;100.00;99686.40;109285;1254;72742;-62
2023/12/02 04:24:25;;;;;;;9.40;6.50;;;;;;;2.98;100.00;99690.34;109271;1255;60350;-62
2023/12/02 04:26:52;;;;;;;9.60;6.30;;;;;;;2.99;100.00;99694.75;109260;1254;60086;-62
2023/12/02 04:29:20;;;;;;;10.00;6.80;;;;;;;3.02;100.00;99690.08;109328;1254;74745;-61
2023/12/02 04:31:48;;;;;;;11.10;7.30;;;;;;;3.04;100.00;99688.60;109347;1253;65081;-62
2023/12/02 04:34:15;;;;;;;9.20;6.20;;;;;;;3.04;100.00;99694.94;109329;1253;72848;-62
2023/12/02 04:36:43;;;;;;;10.10;7.30;;;;;;;3.04;100.00;99704.90;109231;1259;60082;-62
2023/12/02 04:39:11;;;;;;;10.30;7.00;;;;;;;3.05;100.00;99697.33;109312;1253;59687;-62
2023/12/02 04:41:39;;;;;;;11.00;7.50;;;;;;;3.07;100.00;99688.80;109294;1253;74728;-62
2023/12/02 04:44:06;;;;;;;11.80;8.50;;;;;;;3.06;100.00;99692.52;109359;1254;67274;-62
2023/12/02 04:46:34;;;;;;;143.40;60.20;;;;;;;3.03;100.00;99707.54;109383;1253;71409;-62
2023/12/02 04:49:03;;;;;;;72.70;35.70;;;;;;;3.06;100.00;99712.41;109305;1254;60209;-62
2023/12/02 04:51:31;;;;;;;13.40;8.70;;;;;;;3.08;100.00;99723.41;109359;1254;60131;-62
2023/12/02 04:53:59;;;;;;;13.10;8.60;;;;;;;3.11;100.00;99720.96;109406;1253;74689;-62
2023/12/02 04:56:26;;;;;;;9.30;6.40;;;;;;;3.13;100.00;99716.89;109389;1253;65795;-61
2023/12/02 04:58:54;;;;;;;8.70;6.00;;;;;;;3.10;100.00;99723.34;109383;1254;72501;-62
2023/12/02 05:01:22;;;;;;;42.30;23.10;;;;;;;3.08;100.00;99746.37;109410;1256;59671;-61
2023/12/02 05:03:50;;;;;;;9.40;6.40;;;;;;;3.05;100.00;99751.59;109335;1254;60024;-62
2023/12/02 05:06:17;;;;;;;8.30;5.80;;;;;;;2.99;100.00;99755.15;109376;1253;74713;-62
2023/12/02 05:08:45;;;;;;;16.70;10.00;;;;;;;3.02;100.00;99766.65;109289;1254;65404;-65
2023/12/02 05:11:18;;;;;;;9.80;6.90;;;;;;;3.01;100.00;99764.34;109373;1254;71458;-61
2023/12/02 05:14:10;;;;;;;9.60;6.50;;;;;;;3.07;100.00;99759.84;109315;1253;60201;-65
2023/12/02 05:16:42;;;;;;;8.40;6.10;;;;;;;3.05;100.00;99784.23;109322;1254;59564;-61
2023/12/02 05:19:10;;;;;;;9.00;5.80;;;;;;;3.03;100.00;99793.05;109422;1253;73817;-61
2023/12/02 05:21:37;;;;;;;8.20;6.00;;;;;;;3.02;100.00;99779.58;109360;1254;66973;-62
2023/12/02 05:24:06;;;;;;;8.60;6.20;;;;;;;2.98;100.00;99768.83;109308;1254;72832;-62
2023/12/02 05:26:33;;;;;;;7.70;5.60;;;;;;;2.95;100.00;99749.01;109316;1253;61912;-61
2023/12/02 05:29:01;;;;;;;12.20;10.10;;;;;;;2.94;100.00;99756.46;109332;1253;58879;-61
2023/12/02 05:31:29;;;;;;;10.30;7.60;;;;;;;2.94;100.00;99766.73;109357;1253;73764;-61
2023/12/02 05:33:56;;;;;;;7.90;5.40;;;;;;;2.97;100.00;99764.06;109346;1253;65832;-61
2023/12/02 05:36:25;;;;;;;7.70;5.70;;;;;;;2.98;100.00;99761.94;109301;1254;72786;-63
2023/12/02 05:38:53;;;;;;;7.90;5.90;;;;;;;2.98;100.00;99765.55;109311;1253;61727;-61
2023/12/02 05:41:20;;;;;;;7.60;5.30;;;;;;;3.01;100.00;99771.48;109373;1254;59073;-61
2023/12/02 05:43:48;;;;;;;8.30;6.60;;;;;;;3.00;100.00;99782.16;109341;1254;74775;-61
2023/12/02 05:46:16;;;;;;;7.70;5.90;;;;;;;3.01;100.00;99788.94;109345;1254;66821;-64
2023/12/02 05:48:44;;;;;;;8.80;5.90;;;;;;;3.02;100.00;99782.61;109318;1254;71393;-61
2023/12/02 05:51:12;;;;;;;13.80;10.30;;;;;;;3.03;100.00;99791.98;109323;1253;59702;-61
2023/12/02 05:53:40;;;;;;;13.50;10.50;;;;;;;3.01;100.00;99808.96;109357;1254;60082;-61
2023/12/02 05:56:08;;;;;;;9.40;6.90;;;;;;;2.98;100.00;99808.41;109353;1254;73435;-61
2023/12/02 05:58:36;;;;;;;10.40;8.20;;;;;;;3.00;100.00;99808.27;109309;1254;67007;-61
2023/12/02 06:01:03;;;;;;;11.40;8.00;;;;;;;2.99;100.00;99803.34;109329;1253;72696;-61
2023/12/02 06:03:31;;;;;;;9.70;7.80;;;;;;;2.99;100.00;99808.16;109359;1253;59071;-62
2023/12/02 06:05:59;;;;;;;9.70;7.10;;;;;;;2.99;100.00;99809.06;109338;1253;60228;-62
2023/12/02 06:08:26;;;;;;;9.60;6.60;;;;;;;2.95;100.00;99804.23;109319;1253;75151;-62
2023/12/02 06:10:55;;;;;;;7.80;5.50;;;;;;;2.92;100.00;99811.92;109337;1253;65502;-61
2023/12/02 06:13:23;;;;;;;8.30;5.80;;;;;;;2.90;100.00;99809.14;109435;1254;72757;-61
2023/12/02 06:15:50;;;;;;;8.60;6.40;;;;;;;2.90;100.00;99815.48;109347;1253;62088;-61
2023/12/02 06:18:18;;;;;;;9.10;6.60;;;;;;;2.91;100.00;99820.43;109321;1253;60024;-62
2023/12/02 06:20:46;;;;;;;9.00;6.60;;;;;;;2.92;100.00;99815.18;109329;1253;74675;-61
2023/12/02 06:23:13;;;;;;;10.60;7.80;;;;;;;2.90;100.00;99811.16;109383;1253;66956;-62
2023/12/02 06:25:41;;;;;;;12.50;7.80;;;;;;;2.89;100.00;99806.69;109324;1253;71514;-62
2023/12/02 06:28:09;;;;;;;11.90;8.70;;;;;;;2.92;100.00;99813.44;109295;1254;59709;-62
2023/12/02 06:30:36;;;;;;;14.50;9.40;;;;;;;2.89;100.00;99823.48;109275;1253;60111;-62
2023/12/02 06:33:04;;;;;;;9.90;7.30;;;;;;;2.89;100.00;99817.36;109355;1254;74836;-61
2023/12/02 06:35:32;;;;;;;9.80;7.30;;;;;;;2.89;100.00;99807.07;109356;1253;66955;-62
2023/12/02 06:38:00;;;;;;;10.20;7.60;;;;;;;2.83;100.00;99813.73;109308;1253;72785;-61
2023/12/02 06:40:28;;;;;;;10.20;7.40;;;;;;;2.80;100.00;99811.55;109280;1253;60958;-61
2023/12/02 06:42:55;;;;;;;9.90;7.50;;;;;;;2.71;100.00;99809.77;109345;1253;59444;-61
2023/12/02 06:45:23;;;;;;;9.00;6.80;;;;;;;2.68;100.00;99804.88;109330;1254;72505;-61
2023/12/02 06:47:50;;;;;;;9.40;6.50;;;;;;;2.64;100.00;99795.65;109317;1252;65655;-61
2023/12/02 06:50:18;;;;;;;10.10;7.50;;;;;;;2.60;100.00;99792.74;109288;1254;71026;-63
2023/12/02 06:52:46;;;;;;;9.20;6.70;;;;;;;2.64;100.00;99787.03;109321;1254;62296;-61
2023/12/02 06:55:13;;;;;;;8.40;6.40;;;;;;;2.65;100.00;99797.44;109345;1253;58852;-61
2023/12/02 06:57:44;;;;;;;9.30;6.70;;;;;;;2.61;100.00;99793.20;109358;1254;74934;-61
2023/12/02 07:00:13;;;;;;;12.20;7.00;;;;;;;2.56;100.00;99794.63;109333;1254;67633;-63
2023/12/02 07:02:42;;;;;;;8.80;6.30;;;;;;;2.54;100.00;99812.20;109301;1254;72742;-61
2023/12/02 07:05:09;;;;;;;8.60;6.30;;;;;;;2.52;100.00;99814.45;109271;1252;59877;-61
2023/12/02 07:07:37;;;;;;;9.70;7.00;;;;;;;2.48;100.00;99813.95;109323;1254;60115;-65
2023/12/02 07:10:05;;;;;;;13.60;8.80;;;;;;;2.45;100.00;99814.42;109317;1254;73767;-61
2023/12/02 07:12:32;;;;;;;19.60;12.10;;;;;;;2.43;100.00;99819.02;109286;1254;66936;-63
2023/12/02 07:15:00;;;;;;;27.80;14.60;;;;;;;2.41;100.00;99818.05;109323;1253;72721;-61
2023/12/02 07:17:28;;;;;;;25.10;12.80;;;;;;;2.38;100.00;99817.26;109278;1253;59873;-60
2023/12/02 07:19:56;;;;;;;14.50;9.50;;;;;;;2.36;100.00;99797.63;109312;1254;60023;-61
2023/12/02 07:22:24;;;;;;;12.70;7.80;;;;;;;2.34;100.00;99796.73;109325;1253;73465;-62
2023/12/02 07:24:52;;;;;;;11.20;7.80;;;;;;;2.33;100.00;99793.89;109302;1252;65719;-61
2023/12/02 07:27:19;;;;;;;8.80;6.50;;;;;;;2.34;100.00;99786.05;109309;1253;72906;-61
2023/12/02 07:29:47;;;;;;;11.00;7.80;;;;;;;2.34;100.00;99795.52;109297;1254;60693;-61
2023/12/02 07:32:17;;;;;;;11.90;8.10;;;;;;;2.34;100.00;99818.19;109339;1253;60079;-61
2023/12/02 07:34:45;;;;;;;10.30;7.40;;;;;;;2.34;100.00;99812.48;109237;1253;74809;-61
2023/12/02 07:37:13;;;;;;;10.60;7.50;;;;;;;2.32;100.00;99817.33;109337;1253;67047;-60
2023/12/02 07:39:40;;;;;;;11.60;8.60;;;;;;;2.31;100.00;99807.82;109312;1253;71437;-60
2023/12/02 07:42:08;;;;;;;11.10;7.70;;;;;;;2.27;100.00;99809.54;109241;1253;60905;-60
2023/12/02 07:44:35;;;;;;;10.30;7.50;;;;;;;2.26;100.00;99817.04;109353;1253;60364;-61
2023/12/02 07:47:04;;;;;;;18.00;13.00;;;;;;;2.27;100.00;99825.55;109234;1253;74747;-61
2023/12/02 07:49:32;;;;;;;22.80;17.30;;;;;;;2.26;100.00;99833.63;109311;1253;65899;-61
2023/12/02 07:52:00;;;;;;;15.60;11.90;;;;;;;2.28;100.00;99845.00;109304;1254;72750;-61
2023/12/02 07:54:27;;;;;;;13.10;9.50;;;;;;;2.31;100.00;99855.67;109286;1253;60268;-61
2023/12/02 07:56:55;;;;;;;13.20;9.40;;;;;;;2.32;100.00;99852.45;109250;1254;60081;-64
2023/12/02 07:59:23;;;;;;;13.60;9.10;;;;;;;2.31;100.00;99849.98;109290;1253;76053;-61
2023/12/02 08:01:50;;;;;;;17.30;12.00;;;;;;;2.35;100.00;99862.70;109299;1253;66115;-61
2023/12/02 08:04:19;;;;;;;24.00;13.50;;;;;;;2.40;100.00;99864.91;109289;1253;73258;-61
2023/12/02 08:06:46;;;;;;;25.30;14.20;;;;;;;2.43;100.00;99870.66;109296;1253;59685;-61
2023/12/02 08:09:14;;;;;;;24.60;14.80;;;;;;;2.43;100.00;99869.61;109278;1253;59843;-62
2023/12/02 08:11:42;;;;;;;23.60;12.90;;;;;;;2.43;100.00;99868.95;109301;1253;75383;-61
2023/12/02 08:14:10;;;;;;;15.90;10.70;;;;;;;2.46;100.00;99860.59;109297;1253;67388;-62
2023/12/02 08:16:37;;;;;;;13.30;9.40;;;;;;;2.49;100.00;99857.46;109319;1253;71456;-62
2023/12/02 08:19:05;;;;;;;12.50;9.30;;;;;;;2.49;100.00;99848.53;109390;1253;58949;-61
2023/12/02 08:21:33;;;;;;;12.50;9.10;;;;;;;2.45;100.00;99847.98;109409;1253;60104;-64
2023/12/02 08:24:00;;;;;;;12.90;9.40;;;;;;;2.44;100.00;99841.42;109274;1253;73483;-61
2023/12/02 08:26:28;;;;;;;13.30;9.10;;;;;;;2.43;100.00;99828.46;109350;1253;66940;-62
2023/12/02 08:28:56;;;;;;;11.70;9.00;;;;;;;2.41;100.00;99826.75;109345;1253;72794;-61
2023/12/02 08:31:23;;;;;;;12.20;8.50;;;;;;;2.39;100.00;99831.39;109296;1253;60947;-62
2023/12/02 08:33:51;;;;;;;12.90;9.00;;;;;;;2.37;100.00;99836.25;109289;1253;58966;-64
2023/12/02 08:36:18;;;;;;;11.50;8.70;;;;;;;2.34;100.00;99844.36;109416;1253;73448;-62
2023/12/02 08:38:46;;;;;;;12.90;9.10;;;;;;;2.32;100.00;99846.60;109325;1253;66938;-63
2023/12/02 08:41:14;;;;;;;12.30;8.70;;;;;;;2.32;100.00;99848.34;109303;1253;71199;-62
2023/12/02 08:43:42;;;;;;;11.20;8.30;;;;;;;2.33;100.00;99846.88;109314;1253;59677;-62
2023/12/02 08:46:16;;;;;;;10.00;7.80;;;;;;;2.32;100.00;99846.61;109294;1252;59025;-62
2023/12/02 08:48:44;;;;;;;12.50;9.40;;;;;;;2.35;100.00;99848.61;109306;1253;73536;-62
2023/12/02 08:51:12;;;;;;;12.60;9.00;;;;;;;2.34;100.00;99849.02;109336;1253;66988;-62
2023/12/02 08:53:39;;;;;;;10.50;8.10;;;;;;;2.34;100.00;99845.94;109296;1253;72761;-62
2023/12/02 08:56:08;;;;;;;11.20;9.00;;;;;;;2.34;100.00;99831.32;109289;1253;61134;-62
2023/12/02 08:58:36;;;;;;;11.40;8.20;;;;;;;2.36;100.00;99832.92;109365;1253;60117;-62
2023/12/02 09:01:04;;;;;;;11.90;8.50;;;;;;;2.39;100.00;99845.64;109368;1253;74833;-62
2023/12/02 09:03:31;;;;;;;11.30;8.60;;;;;;;2.45;100.00;99837.72;109343;1252;65977;-62
2023/12/02 09:05:59;;;;;;;8.80;6.70;;;;;;;2.53;100.00;99824.46;109286;1253;72767;-64
2023/12/02 09:08:26;;;;;;;10.50;7.20;;;;;;;2.53;100.00;99836.42;109317;1253;61664;-61
2023/12/02 09:10:54;;;;;;;8.60;7.00;;;;;;;2.52;100.00;99849.31;109243;1253;59526;-62
2023/12/02 09:13:40;;;;;;;9.90;7.40;;;;;;;2.53;100.00;99845.93;109355;1253;73332;-61
2023/12/02 09:16:12;;;;;;;9.30;6.80;;;;;;;2.53;100.00;99834.23;109324;1253;67398;-62
2023/12/02 09:18:39;;;;;;;10.40;7.30;;;;;;;2.51;100.00;99850.05;109310;1253;70700;-61
2023/12/02 09:21:26;;;;;;;8.60;6.70;;;;;;;2.50;100.00;99865.57;109316;1253;60989;-61
2023/12/02 09:23:53;;;;;;;9.40;6.90;;;;;;;2.49;100.00;99852.29;109386;1253;59993;-62
2023/12/02 09:26:26;;;;;;;10.10;7.20;;;;;;;2.46;100.00;99855.80;109321;1253;74744;-61
2023/12/02 09:28:54;;;;;;;10.00;7.70;;;;;;;2.51;100.00;99863.82;109344;1253;65691;-61
2023/12/02 09:31:23;;;;;;;11.70;7.70;;;;;;;2.53;100.00;99861.70;109306;1253;71578;-61
2023/12/02 09:33:58;;;;;;;11.00;7.50;;;;;;;2.54;100.00;99871.87;109204;1253;60491;-62
2023/12/02 09:36:39;;;;;;;20.50;13.40;;;;;;;2.56;100.00;99865.70;109300;1253;60100;-61
2023/12/02 09:39:07;;;;;;;13.30;9.30;;;;;;;2.57;100.00;99872.44;109313;1253;74783;-61
2023/12/02 09:41:51;;;;;;;13.00;9.40;;;;;;;2.58;100.00;99880.11;109268;1253;66999;-63
2023/12/02 09:44:19;;;;;;;15.20;12.30;;;;;;;2.57;100.00;99900.45;109294;1253;72829;-62
2023/12/02 09:47:02;;;;;;;13.50;10.00;;;;;;;2.60;100.00;99903.05;109310;1254;60967;-62
2023/12/02 09:49:52;;;;;;;15.20;10.20;;;;;;;2.62;100.00;99880.77;109278;1253;59527;-62
2023/12/02 09:52:51;;;;;;;11.00;7.70;;;;;;;2.59;100.00;99861.77;109319;1253;73246;-61
2023/12/02 09:55:39;;;;;;;13.00;8.30;;;;;;;2.52;100.00;99858.84;109354;1253;67178;-62
2023/12/02 09:58:24;;;;;;;17.80;10.20;;;;;;;2.47;100.00;99867.20;109376;1253;71460;-61
2023/12/02 10:01:27;;;;;;;11.10;6.80;;;;;;;2.45;100.00;99864.67;109317;1253;60929;-61
2023/12/02 10:04:24;;;;;;;9.40;7.20;;;;;;;2.42;100.00;99849.63;109275;1252;59122;-62
2023/12/02 10:07:01;;;;;;;15.20;11.60;;;;;;;2.36;100.00;99866.66;109176;1252;73780;-62
2023/12/02 10:09:29;;;;;;;9.60;7.00;;;;;;;2.34;100.00;99873.02;109241;1253;65649;-62
2023/12/02 10:12:00;;;;;;;9.90;6.70;;;;;;;2.33;100.00;99859.35;109346;1253;71143;-62
2023/12/02 10:14:28;;;;;;;11.80;7.80;;;;;;;2.34;100.00;99848.32;109239;1253;63628;-61
2023/12/02 10:16:56;;;;;;;8.60;6.50;;;;;;;2.35;100.00;99831.92;109374;1253;59056;-61
2023/12/02 10:19:31;;;;;;;9.80;7.00;;;;;;;2.38;100.00;99818.45;109294;1253;74757;-61
2023/12/02 10:21:59;;;;;;;10.10;7.30;;;;;;;2.39;100.00;99830.54;109361;1253;66147;-61
2023/12/02 10:24:31;;;;;;;9.90;6.90;;;;;;;2.40;100.00;99834.40;109353;1253;72760;-61
2023/12/02 10:26:58;;;;;;;;;;;;;;;2.41;100.00;99831.77;109326;1253;59830;-62
2023/12/02 10:29:36;;;;;;;10.70;7.50;;;;;;;2.41;100.00;99823.12;109309;1253;59089;-61
2023/12/02 10:32:16;;;;;;;9.10;7.00;;;;;;;2.39;100.00;99827.09;109345;1253;73537;-61
2023/12/02 10:34:47;;;;;;;9.40;6.80;;;;;;;2.42;100.00;99832.52;109256;1253;67110;-62
2023/12/02 10:37:15;;;;;;;;;;;;;;;2.43;100.00;99838.61;109299;1253;71413;-61
2023/12/02 10:39:44;;;;;;;11.00;7.90;;;;;;;2.42;100.00;99842.48;109259;1253;59760;-61
2023/12/02 10:42:23;;;;;;;9.90;7.30;;;;;;;2.44;100.00;99845.00;109329;1253;58926;-61
2023/12/02 10:45:09;;;;;;;9.70;7.20;;;;;;;2.48;100.00;99856.81;109259;1253;74676;-61
2023/12/02 10:47:37;;;;;;;11.00;8.00;;;;;;;2.50;100.00;99857.85;109341;1253;67505;-62
2023/12/02 10:50:05;;;;;;;10.60;7.10;;;;;;;2.54;100.00;99858.38;109165;1253;71716;-61
2023/12/02 10:52:33;;;;;;;9.40;6.90;;;;;;;2.60;100.00;99867.75;109157;1253;61704;-62
2023/12/02 10:55:04;;;;;;;9.30;6.50;;;;;;;2.64;100.00;99866.34;109290;1253;60072;-61
2023/12/02 10:57:31;;;;;;;8.90;6.60;;;;;;;2.69;100.00;99870.35;109303;1253;74768;-62
2023/12/02 11:00:06;;;;;;;8.90;6.20;;;;;;;2.73;100.00;99872.39;109236;1253;67433;-60
2023/12/02 11:02:38;;;;;;;8.10;5.90;;;;;;;2.75;100.00;99857.13;109330;1253;73225;-60
2023/12/02 11:05:18;;;;;;;;;;;;;;;2.75;100.00;99850.73;109320;1253;59003;-60
2023/12/02 11:07:59;;;;;;;8.50;6.50;;;;;;;2.73;100.00;99837.73;109310;1253;58893;-60
2023/12/02 11:10:32;;;;;;;8.90;6.50;;;;;;;2.64;100.00;99830.15;109225;1253;73724;-60
2023/12/02 11:13:03;;;;;;;8.60;6.70;;;;;;;2.61;100.00;99836.11;109301;1253;65577;-61
2023/12/02 11:15:34;;;;;;;7.90;5.60;;;;;;;2.57;100.00;99847.39;109329;1253;72765;-62
2023/12/02 11:18:05;;;;;;;8.30;5.90;;;;;;;2.55;100.00;99844.18;109310;1253;59384;-63
2023/12/02 11:20:58;;;;;;;8.20;6.00;;;;;;;2.55;100.00;99834.63;109329;1253;60173;-63
2023/12/02 11:23:44;;;;;;;8.30;5.90;;;;;;;2.53;100.00;99817.75;109325;1253;73437;-61
2023/12/02 11:26:18;;;;;;;8.40;6.20;;;;;;;2.53;100.00;99802.72;109249;1253;177237;-65
2023/12/02 11:28:55;;;;;;;9.20;6.60;;;;;;;2.54;100.00;99781.15;109314;1253;72745;-63
2023/12/02 11:31:55;;;;;;;9.60;6.70;;;;;;;2.53;100.00;99777.45;109278;1253;61240;-62